createdAt,value
2023-03-19T00:00:06.830Z,0.76
2023-03-19T00:01:08.826Z,0.88
2023-03-19T00:02:17.402Z,1.00
2023-03-19T00:03:15.197Z,1.13
2023-03-19T00:04:17.609Z,1.24
2023-03-19T00:05:19.500Z,1.31
2023-03-19T00:06:22.045Z,1.33
2023-03-19T00:07:24.139Z,1.32
2023-03-19T00:08:26.205Z,1.31
2023-03-19T00:09:28.442Z,1.27
2023-03-19T00:10:30.543Z,1.27
2023-03-19T00:11:32.839Z,1.24
2023-03-19T00:12:34.758Z,1.36
2023-03-19T00:13:36.689Z,1.38
2023-03-19T00:14:39.577Z,1.41
2023-03-19T00:15:41.676Z,1.48
2023-03-19T00:16:43.977Z,1.44
2023-03-19T00:17:46.027Z,1.48
2023-03-19T00:18:47.910Z,1.41
2023-03-19T00:19:49.778Z,1.37
2023-03-19T00:20:51.752Z,1.35
2023-03-19T00:21:53.633Z,1.37
2023-03-19T00:22:55.762Z,1.52
2023-03-19T00:23:59.188Z,1.53
2023-03-19T00:25:01.100Z,1.57
2023-03-19T00:26:03.556Z,1.58
2023-03-19T00:27:05.515Z,1.53
2023-03-19T00:28:07.414Z,1.47
2023-03-19T00:29:09.939Z,1.50
2023-03-19T00:30:13.050Z,1.50
2023-03-19T00:31:16.316Z,1.45
2023-03-19T00:32:18.355Z,1.58
2023-03-19T00:33:20.535Z,1.52
2023-03-19T00:34:22.781Z,1.08
2023-03-19T00:35:24.692Z,0.88
2023-03-19T00:36:27.481Z,1.06
2023-03-19T00:37:29.517Z,1.14
2023-03-19T00:38:32.680Z,0.98
2023-03-19T00:39:34.907Z,0.81
2023-03-19T00:40:37.230Z,1.06
2023-03-19T00:41:39.246Z,1.06
2023-03-19T00:42:41.129Z,1.11
2023-03-19T00:43:43.326Z,1.17
2023-03-19T00:44:45.205Z,1.29
2023-03-19T00:45:47.243Z,1.36
2023-03-19T00:46:49.412Z,1.40
2023-03-19T00:47:51.311Z,1.42
2023-03-19T00:48:53.400Z,1.41
2023-03-19T00:49:56.340Z,1.45
2023-03-19T00:51:03.823Z,1.41
2023-03-19T00:52:06.065Z,1.32
2023-03-19T00:53:07.962Z,1.36
2023-03-19T00:54:11.453Z,1.40
2023-03-19T00:55:13.454Z,1.23
2023-03-19T00:56:16.181Z,1.15
2023-03-19T00:57:18.591Z,1.14
2023-03-19T00:58:20.578Z,1.25
2023-03-19T00:59:22.690Z,1.15
2023-03-19T01:00:24.838Z,1.03
2023-03-19T01:01:27.062Z,1.12
2023-03-19T01:02:31.365Z,1.17
2023-03-19T01:03:35.378Z,1.27
2023-03-19T01:04:37.641Z,1.34
2023-03-19T01:05:39.724Z,1.40
2023-03-19T01:06:42.009Z,1.41
2023-03-19T01:07:46.196Z,1.46
2023-03-19T01:08:48.114Z,1.50
2023-03-19T01:09:50.415Z,1.40
2023-03-19T01:10:53.038Z,1.31
2023-03-19T01:11:54.947Z,1.38
2023-03-19T01:12:56.925Z,1.40
2023-03-19T01:13:59.051Z,1.31
2023-03-19T01:15:01.802Z,1.26
2023-03-19T01:16:05.814Z,1.18
2023-03-19T01:17:08.195Z,1.22
2023-03-19T01:18:12.259Z,1.13
2023-03-19T01:19:14.631Z,1.15
2023-03-19T01:20:17.054Z,1.11
2023-03-19T01:21:19.674Z,1.20
2023-03-19T01:22:21.755Z,1.16
2023-03-19T01:23:24.193Z,1.09
2023-03-19T01:24:31.297Z,0.99
2023-03-19T01:25:34.138Z,1.03
2023-03-19T01:26:36.356Z,1.02
2023-03-19T01:27:38.922Z,1.01
2023-03-19T01:28:42.508Z,1.01
2023-03-19T01:29:44.420Z,1.00
2023-03-19T01:30:46.547Z,1.00
2023-03-19T01:31:48.762Z,0.96
2023-03-19T01:32:51.106Z,1.01
2023-03-19T01:33:53.078Z,1.12
2023-03-19T01:34:55.061Z,1.02
2023-03-19T01:35:56.988Z,1.00
2023-03-19T01:36:59.562Z,1.02
2023-03-19T01:38:02.132Z,0.97
2023-03-19T01:39:06.062Z,0.97
2023-03-19T01:40:11.768Z,0.96
2023-03-19T01:41:14.038Z,0.91
2023-03-19T01:42:16.694Z,0.88
2023-03-19T01:43:21.806Z,0.87
2023-03-19T01:44:36.182Z,0.87
2023-03-19T01:45:41.627Z,0.86
2023-03-19T01:46:43.686Z,0.86
2023-03-19T01:47:46.093Z,0.80
2023-03-19T01:48:51.147Z,0.65
2023-03-19T01:49:55.877Z,0.69
2023-03-19T01:51:01.662Z,0.67
2023-03-19T01:52:05.914Z,0.59
2023-03-19T01:53:12.631Z,0.62
2023-03-19T01:54:18.567Z,0.56
2023-03-19T01:55:20.776Z,0.60
2023-03-19T01:56:34.674Z,0.62
2023-03-19T01:57:37.768Z,0.59
2023-03-19T01:58:42.998Z,0.56
2023-03-19T01:59:48.823Z,0.53
2023-03-19T02:00:51.372Z,0.55
2023-03-19T02:01:57.541Z,0.57
2023-03-19T02:03:01.776Z,0.58
2023-03-19T02:04:05.612Z,0.59
2023-03-19T02:05:11.551Z,0.51
2023-03-19T02:06:16.344Z,0.51
2023-03-19T02:07:19.529Z,0.50
2023-03-19T02:08:24.133Z,0.50
2023-03-19T02:09:28.574Z,0.50
2023-03-19T02:10:32.016Z,0.45
2023-03-19T02:11:36.649Z,0.49
2023-03-19T02:12:38.940Z,0.44
2023-03-19T02:13:41.683Z,0.42
2023-03-19T02:14:43.667Z,0.35
2023-03-19T02:15:45.930Z,0.36
2023-03-19T02:16:48.482Z,0.32
2023-03-19T02:17:50.460Z,0.34
2023-03-19T02:18:52.644Z,0.28
2023-03-19T02:20:01.079Z,0.27
2023-03-19T02:21:07.014Z,0.24
2023-03-19T02:22:12.157Z,0.19
2023-03-19T02:23:27.361Z,0.20
2023-03-19T02:24:38.781Z,0.17
2023-03-19T02:25:45.280Z,0.14
2023-03-19T02:26:48.958Z,0.05
2023-03-19T02:27:51.295Z,0.06
2023-03-19T02:28:53.777Z,0.08
2023-03-19T02:29:55.841Z,0.09
2023-03-19T02:30:58.600Z,0.03
2023-03-19T02:32:00.839Z,0.08
2023-03-19T02:33:03.817Z,0.10
2023-03-19T02:34:15.314Z,0.08
2023-03-19T02:35:18.704Z,0.07
2023-03-19T02:36:21.585Z,0.09
2023-03-19T02:37:31.204Z,0.14
2023-03-19T02:38:33.992Z,0.10
2023-03-19T02:39:48.506Z,0.14
2023-03-19T02:41:00.106Z,0.11
2023-03-19T02:42:03.810Z,0.12
2023-03-19T02:43:05.847Z,0.10
2023-03-19T02:44:10.646Z,0.13
2023-03-19T02:45:13.298Z,0.24
2023-03-19T02:46:15.442Z,0.21
2023-03-19T02:47:18.377Z,0.18
2023-03-19T02:48:20.749Z,0.16
2023-03-19T02:49:22.738Z,0.18
2023-03-19T02:50:25.650Z,0.17
2023-03-19T02:51:27.833Z,0.15
2023-03-19T02:52:30.887Z,0.06
2023-03-19T02:53:32.775Z,0.08
2023-03-19T02:54:34.842Z,0.04
2023-03-19T02:55:37.959Z,0.03
2023-03-19T02:56:39.973Z,0.04
2023-03-19T02:57:41.987Z,0.04
2023-03-19T02:58:43.965Z,-0.01
2023-03-19T02:59:46.855Z,-0.03
2023-03-19T03:00:49.146Z,-0.03
2023-03-19T03:01:51.305Z,-0.05
2023-03-19T03:02:55.683Z,-0.08
2023-03-19T03:03:57.706Z,-0.08
2023-03-19T03:04:59.623Z,-0.09
2023-03-19T03:06:01.503Z,-0.10
2023-03-19T03:07:04.321Z,-0.11
2023-03-19T03:08:06.222Z,-0.09
2023-03-19T03:09:09.817Z,-0.21
2023-03-19T03:10:13.136Z,-0.30
2023-03-19T03:11:15.157Z,-0.21
2023-03-19T03:12:17.228Z,-0.18
2023-03-19T03:13:19.099Z,-0.14
2023-03-19T03:14:20.981Z,-0.17
2023-03-19T03:15:23.268Z,-0.16
2023-03-19T03:16:25.418Z,-0.16
2023-03-19T03:17:28.312Z,-0.23
2023-03-19T03:18:30.317Z,-0.24
2023-03-19T03:19:32.459Z,-0.16
2023-03-19T03:20:35.060Z,-0.23
2023-03-19T03:21:37.239Z,-0.22
2023-03-19T03:22:40.039Z,-0.29
2023-03-19T03:23:42.057Z,-0.26
2023-03-19T03:24:44.415Z,-0.24
2023-03-19T03:25:49.450Z,-0.23
2023-03-19T03:26:51.636Z,-0.28
2023-03-19T03:27:53.520Z,-0.33
2023-03-19T03:28:55.796Z,-0.30
2023-03-19T03:29:57.877Z,-0.35
2023-03-19T03:31:01.603Z,-0.40
2023-03-19T03:32:03.964Z,-0.40
2023-03-19T03:33:05.986Z,-0.33
2023-03-19T03:34:09.435Z,-0.53
2023-03-19T03:35:12.050Z,-0.48
2023-03-19T03:36:14.445Z,-0.49
2023-03-19T03:37:16.580Z,-0.50
2023-03-19T03:38:18.765Z,-0.52
2023-03-19T03:39:21.464Z,-0.52
2023-03-19T03:40:23.444Z,-0.50
2023-03-19T03:41:25.808Z,-0.47
2023-03-19T03:42:27.728Z,-0.56
2023-03-19T03:43:29.716Z,-0.61
2023-03-19T03:44:31.693Z,-0.58
2023-03-19T03:45:33.592Z,-0.56
2023-03-19T03:46:35.984Z,-0.56
2023-03-19T03:47:38.055Z,-0.52
2023-03-19T03:48:40.709Z,-0.60
2023-03-19T03:49:43.436Z,-0.60
2023-03-19T03:50:45.515Z,-0.59
2023-03-19T03:51:47.599Z,-0.57
2023-03-19T03:52:49.958Z,-0.61
2023-03-19T03:53:51.940Z,-0.70
2023-03-19T03:54:53.827Z,-0.71
2023-03-19T03:55:55.885Z,-0.66
2023-03-19T03:56:57.847Z,-0.65
2023-03-19T03:57:59.954Z,-0.65
2023-03-19T03:59:02.154Z,-0.56
2023-03-19T04:00:05.650Z,-0.66
2023-03-19T04:01:07.570Z,-0.72
2023-03-19T04:02:09.904Z,-0.86
2023-03-19T04:03:11.887Z,-0.89
2023-03-19T04:04:14.639Z,-0.91
2023-03-19T04:05:17.482Z,-0.90
2023-03-19T04:06:22.145Z,-0.86
2023-03-19T04:07:24.077Z,-0.83
2023-03-19T04:08:25.992Z,-0.84
2023-03-19T04:09:27.895Z,-0.85
2023-03-19T04:10:30.799Z,-0.87
2023-03-19T04:11:33.930Z,-0.87
2023-03-19T04:12:37.592Z,-0.86
2023-03-19T04:13:39.489Z,-0.90
2023-03-19T04:14:41.481Z,-0.92
2023-03-19T04:15:43.865Z,-0.93
2023-03-19T04:16:46.104Z,-0.90
2023-03-19T04:17:49.250Z,-0.84
2023-03-19T04:18:51.136Z,-0.79
2023-03-19T04:19:53.038Z,-0.82
2023-03-19T04:20:55.064Z,-0.90
2023-03-19T04:21:58.279Z,-0.85
2023-03-19T04:23:00.670Z,-0.85
2023-03-19T04:24:02.996Z,-0.80
2023-03-19T04:25:07.495Z,-0.88
2023-03-19T04:26:10.053Z,-0.95
2023-03-19T04:27:11.961Z,-0.96
2023-03-19T04:28:14.104Z,-0.97
2023-03-19T04:29:16.202Z,-0.93
2023-03-19T04:30:18.480Z,-0.86
2023-03-19T04:31:20.522Z,-0.76
2023-03-19T04:32:22.782Z,-0.78
2023-03-19T04:33:25.433Z,-0.77
2023-03-19T04:34:27.504Z,-0.80
2023-03-19T04:35:30.160Z,-0.79
2023-03-19T04:36:32.559Z,-0.81
2023-03-19T04:37:34.582Z,-0.80
2023-03-19T04:38:36.768Z,-0.79
2023-03-19T04:39:39.630Z,-0.80
2023-03-19T04:40:41.737Z,-0.85
2023-03-19T04:41:43.640Z,-0.79
2023-03-19T04:42:45.689Z,-0.69
2023-03-19T04:43:47.607Z,-0.53
2023-03-19T04:44:49.493Z,-0.58
2023-03-19T04:45:51.558Z,-0.71
2023-03-19T04:46:54.207Z,-0.75
2023-03-19T04:47:56.092Z,-0.77
2023-03-19T04:48:57.986Z,-0.65
2023-03-19T04:50:00.161Z,-0.71
2023-03-19T04:51:02.681Z,-0.76
2023-03-19T04:52:05.301Z,-0.71
2023-03-19T04:53:07.518Z,-0.64
2023-03-19T04:54:09.515Z,-0.72
2023-03-19T04:55:11.452Z,-0.80
2023-03-19T04:56:14.483Z,-0.85
2023-03-19T04:57:16.483Z,-0.85
2023-03-19T04:58:18.393Z,-0.84
2023-03-19T04:59:22.940Z,-0.77
2023-03-19T05:00:25.020Z,-0.86
2023-03-19T05:01:27.328Z,-0.79
2023-03-19T05:02:29.505Z,-0.82
2023-03-19T05:03:31.440Z,-0.68
2023-03-19T05:04:33.382Z,-0.88
2023-03-19T05:05:35.283Z,-0.88
2023-03-19T05:06:38.722Z,-0.84
2023-03-19T05:07:40.980Z,-0.76
2023-03-19T05:08:42.877Z,-0.72
2023-03-19T05:09:44.808Z,-0.77
2023-03-19T05:10:47.053Z,-0.73
2023-03-19T05:11:50.911Z,-0.66
2023-03-19T05:12:52.936Z,-0.60
2023-03-19T05:13:55.510Z,-0.56
2023-03-19T05:14:58.480Z,-0.60
2023-03-19T05:16:01.439Z,-0.51
2023-03-19T05:17:03.976Z,-0.52
2023-03-19T05:18:05.883Z,-0.58
2023-03-19T05:19:07.943Z,-0.75
2023-03-19T05:20:11.429Z,-0.56
2023-03-19T05:21:14.038Z,-0.47
2023-03-19T05:22:15.937Z,-0.39
2023-03-19T05:23:18.265Z,-0.33
2023-03-19T05:24:20.291Z,-0.50
2023-03-19T05:25:22.174Z,-0.50
2023-03-19T05:26:24.492Z,-0.55
2023-03-19T05:27:26.366Z,-0.67
2023-03-19T05:28:28.559Z,-0.88
2023-03-19T05:29:31.233Z,-0.95
2023-03-19T05:30:34.915Z,-0.58
2023-03-19T05:31:37.949Z,-0.79
2023-03-19T05:32:40.159Z,-0.93
2023-03-19T05:33:42.441Z,-0.81
2023-03-19T05:34:44.353Z,-0.56
2023-03-19T05:35:46.340Z,-0.54
2023-03-19T05:36:48.524Z,-0.58
2023-03-19T05:37:50.399Z,-0.72
2023-03-19T05:38:52.445Z,-0.74
2023-03-19T05:39:54.695Z,-0.58
2023-03-19T05:40:56.928Z,-0.46
2023-03-19T05:42:00.434Z,-0.21
2023-03-19T05:43:03.257Z,0.01
2023-03-19T05:44:05.654Z,0.13
2023-03-19T05:45:08.854Z,0.22
2023-03-19T05:46:11.227Z,0.25
2023-03-19T05:47:13.292Z,0.39
2023-03-19T05:48:15.150Z,0.52
2023-03-19T05:49:17.590Z,0.64
2023-03-19T05:50:19.837Z,0.63
2023-03-19T05:51:22.817Z,0.57
2023-03-19T05:52:24.772Z,0.56
2023-03-19T05:53:26.749Z,0.13
2023-03-19T05:54:28.647Z,-0.12
2023-03-19T05:55:31.646Z,-0.12
2023-03-19T05:56:34.001Z,0.19
2023-03-19T05:57:36.089Z,0.26
2023-03-19T05:58:38.945Z,0.25
2023-03-19T05:59:41.452Z,0.33
2023-03-19T06:00:43.449Z,0.33
2023-03-19T06:01:45.716Z,0.26
2023-03-19T06:02:47.782Z,0.39
2023-03-19T06:03:49.823Z,0.12
2023-03-19T06:04:51.928Z,0.40
2023-03-19T06:05:54.315Z,0.40
2023-03-19T06:06:56.604Z,0.40
2023-03-19T06:07:58.672Z,0.25
2023-03-19T06:09:00.537Z,0.11
2023-03-19T06:10:03.331Z,0.16
2023-03-19T06:11:05.244Z,0.34
2023-03-19T06:12:07.712Z,0.31
2023-03-19T06:13:09.759Z,0.45
2023-03-19T06:14:12.010Z,0.48
2023-03-19T06:15:14.141Z,0.42
2023-03-19T06:16:16.136Z,0.44
2023-03-19T06:17:19.099Z,0.79
2023-03-19T06:18:21.772Z,0.89
2023-03-19T06:19:23.764Z,0.96
2023-03-19T06:20:25.918Z,0.85
2023-03-19T06:21:27.816Z,0.80
2023-03-19T06:22:29.683Z,0.80
2023-03-19T06:23:32.487Z,0.83
2023-03-19T06:24:34.494Z,0.91
2023-03-19T06:25:36.498Z,0.94
2023-03-19T06:26:40.663Z,1.15
2023-03-19T06:27:42.681Z,1.32
2023-03-19T06:28:44.677Z,1.25
2023-03-19T06:29:46.567Z,1.51
2023-03-19T06:30:48.831Z,1.65
2023-03-19T06:31:51.025Z,1.75
2023-03-19T06:32:53.276Z,1.98
2023-03-19T06:33:55.614Z,2.05
2023-03-19T06:34:57.652Z,2.14
2023-03-19T06:35:59.570Z,2.26
2023-03-19T06:37:01.841Z,2.34
2023-03-19T06:38:03.748Z,2.42
2023-03-19T06:39:05.738Z,2.07
2023-03-19T06:40:10.517Z,2.13
2023-03-19T06:41:13.364Z,2.40
2023-03-19T06:42:15.308Z,2.51
2023-03-19T06:43:17.246Z,2.61
2023-03-19T06:44:19.288Z,2.71
2023-03-19T06:45:21.282Z,2.83
2023-03-19T06:46:25.153Z,2.88
2023-03-19T06:47:27.284Z,2.93
2023-03-19T06:48:29.492Z,3.04
2023-03-19T06:49:31.369Z,3.10
2023-03-19T06:50:33.653Z,3.14
2023-03-19T06:51:36.103Z,3.18
2023-03-19T06:52:38.608Z,3.25
2023-03-19T06:53:40.900Z,3.26
2023-03-19T06:54:42.886Z,3.26
2023-03-19T06:55:47.539Z,3.28
2023-03-19T06:56:49.671Z,3.33
2023-03-19T06:57:52.697Z,3.45
2023-03-19T06:58:55.422Z,3.22
2023-03-19T06:59:57.823Z,3.25
2023-03-19T07:01:00.219Z,3.24
2023-03-19T07:02:02.599Z,3.49
2023-03-19T07:03:04.478Z,3.49
2023-03-19T07:04:09.023Z,3.39
2023-03-19T07:05:11.210Z,3.71
2023-03-19T07:06:13.483Z,3.84
2023-03-19T07:07:15.646Z,3.64
2023-03-19T07:08:18.152Z,3.85
2023-03-19T07:09:20.158Z,3.76
2023-03-19T07:10:22.143Z,4.06
2023-03-19T07:11:24.065Z,3.61
2023-03-19T07:12:25.962Z,3.45
2023-03-19T07:13:27.892Z,3.43
2023-03-19T07:14:32.045Z,3.46
2023-03-19T07:15:34.490Z,3.40
2023-03-19T07:16:36.552Z,3.50
2023-03-19T07:17:39.312Z,3.42
2023-03-19T07:18:41.877Z,3.80
2023-03-19T07:19:44.166Z,3.95
2023-03-19T07:20:46.325Z,4.17
2023-03-19T07:21:48.545Z,4.27
2023-03-19T07:22:51.131Z,4.50
2023-03-19T07:23:53.085Z,4.61
2023-03-19T07:24:55.856Z,4.63
2023-03-19T07:25:57.795Z,4.77
2023-03-19T07:27:00.155Z,4.67
2023-03-19T07:28:02.812Z,4.79
2023-03-19T07:29:05.445Z,4.89
2023-03-19T07:30:09.246Z,4.93
2023-03-19T07:31:11.373Z,5.07
2023-03-19T07:32:14.253Z,5.09
2023-03-19T07:33:16.153Z,5.10
2023-03-19T07:34:18.202Z,5.14
2023-03-19T07:35:20.256Z,5.20
2023-03-19T07:36:23.352Z,5.27
2023-03-19T07:37:25.350Z,5.21
2023-03-19T07:38:27.524Z,4.74
2023-03-19T07:39:29.412Z,4.48
2023-03-19T07:40:31.551Z,5.01
2023-03-19T07:41:35.000Z,4.65
2023-03-19T07:42:36.960Z,4.48
2023-03-19T07:43:38.972Z,4.77
2023-03-19T07:44:40.864Z,4.96
2023-03-19T07:45:42.760Z,5.22
2023-03-19T07:46:44.848Z,5.35
2023-03-19T07:47:50.408Z,5.53
2023-03-19T07:48:52.718Z,5.60
2023-03-19T07:49:56.202Z,5.78
2023-03-19T07:50:58.200Z,5.74
2023-03-19T07:52:00.814Z,5.81
2023-03-19T07:53:03.743Z,5.83
2023-03-19T07:54:05.860Z,5.71
2023-03-19T07:55:08.725Z,5.76
2023-03-19T07:56:11.720Z,5.76
2023-03-19T07:57:13.600Z,5.63
2023-03-19T07:58:16.762Z,5.15
2023-03-19T07:59:19.412Z,5.41
2023-03-19T08:00:21.947Z,5.17
2023-03-19T08:01:23.981Z,5.39
2023-03-19T08:02:26.366Z,5.65
2023-03-19T08:03:30.665Z,5.83
2023-03-19T08:04:32.809Z,6.10
2023-03-19T08:05:35.023Z,6.04
2023-03-19T08:06:37.251Z,6.19
2023-03-19T08:07:40.118Z,6.18
2023-03-19T08:08:42.223Z,6.37
2023-03-19T08:09:44.693Z,6.35
2023-03-19T08:10:46.747Z,6.37
2023-03-19T08:11:48.625Z,6.35
2023-03-19T08:12:50.570Z,6.24
2023-03-19T08:13:52.447Z,6.17
2023-03-19T08:14:54.424Z,6.04
2023-03-19T08:15:56.598Z,5.81
2023-03-19T08:16:59.362Z,6.08
2023-03-19T08:18:03.552Z,6.22
2023-03-19T08:19:05.478Z,6.25
2023-03-19T08:20:10.875Z,6.30
2023-03-19T08:21:12.944Z,6.34
2023-03-19T08:22:14.845Z,6.27
2023-03-19T08:23:17.609Z,6.36
2023-03-19T08:24:19.876Z,6.27
2023-03-19T08:25:21.745Z,6.38
2023-03-19T08:26:23.708Z,6.46
2023-03-19T08:27:25.584Z,6.45
2023-03-19T08:28:27.443Z,6.38
2023-03-19T08:29:29.761Z,6.40
2023-03-19T08:30:33.009Z,6.31
2023-03-19T08:31:35.143Z,6.34
2023-03-19T08:32:37.895Z,6.39
2023-03-19T08:33:40.850Z,6.33
2023-03-19T08:34:42.930Z,6.44
2023-03-19T08:35:45.126Z,6.46
2023-03-19T08:36:48.180Z,6.60
2023-03-19T08:37:50.254Z,6.59
2023-03-19T08:38:52.110Z,6.58
2023-03-19T08:39:54.194Z,6.65
2023-03-19T08:40:58.366Z,6.71
2023-03-19T08:42:00.273Z,6.66
2023-03-19T08:43:02.629Z,6.59
2023-03-19T08:44:04.793Z,6.69
2023-03-19T08:45:08.994Z,6.65
2023-03-19T08:46:11.158Z,6.72
2023-03-19T08:47:13.572Z,6.82
2023-03-19T08:48:15.475Z,6.37
2023-03-19T08:49:17.416Z,6.36
2023-03-19T08:50:19.834Z,6.47
2023-03-19T08:51:22.305Z,6.49
2023-03-19T08:52:25.708Z,6.64
2023-03-19T08:53:28.853Z,6.56
2023-03-19T08:54:31.312Z,6.66
2023-03-19T08:55:33.308Z,6.69
2023-03-19T08:56:35.821Z,6.69
2023-03-19T08:57:37.862Z,6.58
2023-03-19T08:58:39.778Z,6.61
2023-03-19T08:59:41.848Z,6.62
2023-03-19T09:00:43.865Z,6.71
2023-03-19T09:01:51.569Z,6.75
2023-03-19T09:02:53.931Z,6.62
2023-03-19T09:03:55.934Z,6.75
2023-03-19T09:04:57.908Z,6.75
2023-03-19T09:06:01.519Z,6.72
2023-03-19T09:07:04.584Z,6.60
2023-03-19T09:08:07.080Z,6.69
2023-03-19T09:09:08.976Z,6.65
2023-03-19T09:10:12.164Z,6.56
2023-03-19T09:11:14.929Z,6.53
2023-03-19T09:12:18.228Z,6.54
2023-03-19T09:13:20.532Z,6.30
2023-03-19T09:14:22.443Z,6.36
2023-03-19T09:15:25.068Z,6.41
2023-03-19T09:16:27.117Z,6.53
2023-03-19T09:17:29.334Z,6.49
2023-03-19T09:18:31.622Z,6.44
2023-03-19T09:19:34.005Z,6.59
2023-03-19T09:20:36.000Z,6.54
2023-03-19T09:21:37.887Z,6.69
2023-03-19T09:22:40.254Z,6.58
2023-03-19T09:23:42.460Z,6.60
2023-03-19T09:24:44.731Z,6.87
2023-03-19T09:25:46.714Z,6.87
2023-03-19T09:26:48.734Z,6.86
2023-03-19T09:27:51.210Z,6.93
2023-03-19T09:28:53.331Z,6.98
2023-03-19T09:29:55.190Z,6.89
2023-03-19T09:30:57.247Z,6.89
2023-03-19T09:32:00.696Z,6.80
2023-03-19T09:33:04.096Z,6.80
2023-03-19T09:34:06.647Z,6.75
2023-03-19T09:35:12.700Z,6.72
2023-03-19T09:36:15.575Z,6.69
2023-03-19T09:37:18.343Z,6.68
2023-03-19T09:38:21.528Z,6.59
2023-03-19T09:39:24.253Z,6.54
2023-03-19T09:40:48.223Z,6.60
2023-03-19T09:42:15.631Z,6.48
2023-03-19T09:43:38.085Z,6.52
2023-03-19T09:44:43.698Z,6.53
2023-03-19T09:45:47.647Z,6.47
2023-03-19T09:48:12.928Z,6.65
2023-03-19T09:49:24.110Z,6.59
2023-03-19T09:50:26.751Z,6.62
2023-03-19T09:51:47.716Z,6.61
2023-03-19T09:52:56.459Z,6.45
2023-03-19T09:54:02.151Z,6.33
2023-03-19T09:55:26.269Z,6.27
2023-03-19T09:56:31.279Z,6.09
2023-03-19T09:57:36.639Z,6.12
2023-03-19T09:58:39.406Z,6.26
2023-03-19T09:59:41.623Z,6.23
2023-03-19T10:00:47.361Z,6.36
2023-03-19T10:01:53.213Z,6.49
2023-03-19T10:03:14.465Z,6.49
2023-03-19T10:04:29.479Z,6.65
2023-03-19T10:05:51.977Z,6.73
2023-03-19T10:06:57.751Z,6.78
2023-03-19T10:08:32.542Z,6.84
2023-03-19T10:09:48.214Z,6.97
2023-03-19T10:11:03.215Z,7.07
2023-03-19T10:12:33.126Z,6.98
2023-03-19T10:13:38.814Z,7.01
2023-03-19T10:15:02.992Z,7.10
2023-03-19T10:16:08.935Z,6.91
2023-03-19T10:17:34.509Z,6.91
2023-03-19T10:18:37.986Z,6.92
2023-03-19T10:19:46.838Z,7.07
2023-03-19T10:20:58.533Z,7.04
2023-03-19T10:22:04.219Z,7.18
2023-03-19T10:23:38.918Z,7.07
2023-03-19T10:24:44.776Z,7.05
2023-03-19T10:25:47.927Z,7.17
2023-03-19T10:26:54.276Z,7.08
2023-03-19T10:28:02.568Z,7.02
2023-03-19T10:29:16.954Z,6.87
2023-03-19T10:30:20.493Z,7.17
2023-03-19T10:31:29.193Z,7.18
2023-03-19T10:32:47.069Z,7.23
2023-03-19T10:34:14.279Z,7.35
2023-03-19T10:35:25.980Z,7.21
2023-03-19T10:36:32.332Z,7.24
2023-03-19T10:37:35.472Z,7.25
2023-03-19T10:38:43.133Z,7.40
2023-03-19T10:39:48.453Z,7.42
2023-03-19T10:41:10.877Z,7.23
2023-03-19T10:42:42.197Z,6.65
2023-03-19T10:43:47.955Z,7.06
2023-03-19T10:44:53.636Z,6.90
2023-03-19T10:45:57.486Z,6.85
2023-03-19T10:47:12.074Z,7.12
2023-03-19T10:48:18.377Z,7.23
2023-03-19T10:49:20.496Z,7.34
2023-03-19T10:50:28.985Z,7.34
2023-03-19T10:51:31.859Z,7.39
2023-03-19T10:52:36.273Z,7.55
2023-03-19T10:53:39.478Z,7.56
2023-03-19T10:54:44.132Z,7.57
2023-03-19T10:55:58.224Z,7.50
2023-03-19T10:57:00.551Z,7.62
2023-03-19T10:58:05.783Z,7.72
2023-03-19T10:59:11.462Z,7.82
2023-03-19T11:01:35.937Z,7.79
2023-03-19T11:02:41.602Z,7.80
2023-03-19T11:03:53.082Z,7.81
2023-03-19T11:05:13.955Z,8.01
2023-03-19T11:06:19.832Z,8.05
2023-03-19T11:07:25.255Z,7.96
2023-03-19T11:08:35.527Z,7.93
2023-03-19T11:09:37.317Z,7.90
2023-03-19T11:10:43.144Z,7.94
2023-03-19T11:11:51.597Z,7.87
2023-03-19T11:13:06.492Z,7.80
2023-03-19T11:14:18.189Z,7.88
2023-03-19T11:15:23.510Z,7.89
2023-03-19T11:16:25.926Z,7.66
2023-03-19T11:17:40.783Z,7.77
2023-03-19T11:18:46.443Z,7.84
2023-03-19T11:19:54.610Z,7.70
2023-03-19T11:20:59.172Z,7.55
2023-03-19T11:22:16.185Z,7.81
2023-03-19T11:23:19.909Z,7.85
2023-03-19T11:24:21.816Z,7.95
2023-03-19T11:25:44.032Z,7.91
2023-03-19T11:26:50.117Z,7.99
2023-03-19T11:28:04.285Z,8.02
2023-03-19T11:29:07.819Z,8.07
2023-03-19T11:30:17.388Z,8.10
2023-03-19T11:31:29.487Z,7.76
2023-03-19T11:33:05.962Z,7.71
2023-03-19T11:34:17.600Z,7.52
2023-03-19T11:35:21.243Z,8.09
2023-03-19T11:36:27.010Z,8.05
2023-03-19T11:37:50.833Z,8.01
2023-03-19T11:39:08.798Z,7.95
2023-03-19T11:40:16.516Z,8.13
2023-03-19T11:41:31.263Z,8.14
2023-03-19T11:44:08.842Z,8.29
2023-03-19T11:45:27.892Z,8.34
2023-03-19T11:46:41.117Z,8.25
2023-03-19T11:47:55.724Z,7.80
2023-03-19T11:49:18.388Z,8.10
2023-03-19T11:50:39.711Z,7.99
2023-03-19T11:51:51.293Z,7.95
2023-03-19T11:52:55.040Z,8.14
2023-03-19T11:54:12.562Z,8.13
2023-03-19T11:55:33.406Z,8.09
2023-03-19T11:58:13.051Z,8.51
2023-03-19T11:59:30.538Z,8.34
2023-03-19T12:00:53.925Z,8.43
2023-03-19T12:02:23.942Z,8.48
2023-03-19T12:03:51.024Z,8.30
2023-03-19T12:05:19.041Z,8.34
2023-03-19T12:06:33.628Z,8.37
2023-03-19T12:08:00.534Z,8.40
2023-03-19T12:09:24.606Z,8.50
2023-03-19T12:10:39.564Z,8.39
2023-03-19T12:12:03.327Z,8.56
2023-03-19T12:13:38.509Z,8.50
2023-03-19T12:15:02.942Z,8.64
2023-03-19T12:16:44.142Z,8.68
2023-03-19T12:17:46.819Z,8.79
2023-03-19T12:18:55.746Z,8.82
2023-03-19T12:20:18.008Z,8.39
2023-03-19T12:21:43.488Z,8.34
2023-03-19T12:22:55.007Z,8.51
2023-03-19T12:24:18.990Z,8.60
2023-03-19T12:25:41.320Z,8.59
2023-03-19T12:27:20.982Z,8.52
2023-03-19T12:28:26.308Z,8.59
2023-03-19T12:29:51.561Z,8.61
2023-03-19T12:31:06.484Z,8.62
2023-03-19T12:33:50.169Z,8.60
2023-03-19T12:34:58.760Z,8.48
2023-03-19T12:36:04.593Z,8.59
2023-03-19T12:37:32.906Z,8.58
2023-03-19T12:38:44.885Z,8.59
2023-03-19T12:40:07.189Z,8.56
2023-03-19T12:41:13.334Z,8.60
2023-03-19T12:42:19.017Z,8.58
2023-03-19T12:43:27.591Z,8.53
2023-03-19T12:44:39.558Z,8.63
2023-03-19T12:45:51.029Z,8.64
2023-03-19T12:46:59.158Z,8.65
2023-03-19T12:48:16.974Z,8.60
2023-03-19T12:49:22.691Z,8.62
2023-03-19T12:50:26.968Z,8.60
2023-03-19T12:51:36.100Z,8.62
2023-03-19T12:52:40.764Z,8.63
2023-03-19T12:53:55.292Z,8.56
2023-03-19T12:55:13.387Z,8.65
2023-03-19T12:56:33.874Z,8.56
2023-03-19T12:58:10.000Z,8.57
2023-03-19T12:59:30.983Z,8.59
2023-03-19T13:00:59.527Z,8.56
2023-03-19T13:02:05.367Z,8.60
2023-03-19T13:03:17.222Z,8.73
2023-03-19T13:04:25.755Z,8.70
2023-03-19T13:05:54.284Z,8.72
2023-03-19T13:07:08.819Z,8.57
2023-03-19T13:08:20.345Z,8.47
2023-03-19T13:09:38.333Z,8.30
2023-03-19T13:10:40.652Z,8.47
2023-03-19T13:11:49.085Z,8.64
2023-03-19T13:12:54.540Z,8.74
2023-03-19T13:14:03.080Z,8.65
2023-03-19T13:15:14.369Z,8.53
2023-03-19T13:16:29.214Z,8.33
2023-03-19T13:17:50.194Z,8.47
2023-03-19T13:19:11.118Z,8.54
2023-03-19T13:20:15.491Z,8.67
2023-03-19T13:21:33.240Z,8.71
2023-03-19T13:22:38.141Z,8.74
2023-03-19T13:23:44.223Z,8.84
2023-03-19T13:24:48.601Z,8.78
2023-03-19T13:25:53.128Z,8.87
2023-03-19T13:26:58.611Z,8.94
2023-03-19T13:28:03.861Z,8.89
2023-03-19T13:29:15.593Z,8.90
2023-03-19T13:30:19.987Z,8.90
2023-03-19T13:31:26.201Z,8.89
2023-03-19T13:32:50.417Z,8.83
2023-03-19T13:34:01.936Z,8.77
2023-03-19T13:35:16.899Z,8.45
2023-03-19T13:36:20.356Z,8.61
2023-03-19T13:37:23.326Z,8.72
2023-03-19T13:38:41.174Z,8.75
2023-03-19T13:39:45.575Z,8.75
2023-03-19T13:40:59.212Z,8.85
2023-03-19T13:42:16.780Z,8.89
2023-03-19T13:44:44.264Z,8.88
2023-03-19T13:45:52.086Z,8.89
2023-03-19T13:46:54.309Z,8.96
2023-03-19T13:47:58.131Z,8.92
2023-03-19T13:49:20.720Z,8.97
2023-03-19T13:50:26.399Z,8.92
2023-03-19T13:51:29.146Z,9.01
2023-03-19T13:52:34.779Z,8.98
2023-03-19T13:54:53.113Z,8.55
2023-03-19T13:55:58.164Z,8.68
2023-03-19T13:57:04.034Z,8.74
2023-03-19T13:58:12.726Z,8.84
2023-03-19T13:59:19.963Z,8.86
2023-03-19T14:00:44.730Z,8.97
2023-03-19T14:01:46.732Z,8.82
2023-03-19T14:02:52.668Z,8.93
2023-03-19T14:04:00.829Z,8.93
2023-03-19T14:05:15.538Z,8.96
2023-03-19T14:06:36.793Z,8.98
2023-03-19T14:07:42.692Z,8.96
2023-03-19T14:08:46.075Z,8.87
2023-03-19T14:09:50.744Z,8.93
2023-03-19T14:10:56.532Z,8.93
2023-03-19T14:12:18.917Z,8.84
2023-03-19T14:13:42.831Z,8.87
2023-03-19T14:14:57.731Z,8.90
2023-03-19T14:16:09.799Z,8.88
2023-03-19T14:17:27.944Z,8.82
2023-03-19T14:18:31.368Z,8.87
2023-03-19T14:19:37.863Z,8.94
2023-03-19T14:20:48.387Z,8.99
2023-03-19T14:22:09.277Z,8.88
2023-03-19T14:23:36.127Z,8.85
2023-03-19T14:26:11.242Z,8.89
2023-03-19T14:27:16.540Z,8.91
2023-03-19T14:28:22.215Z,8.89
2023-03-19T14:29:26.267Z,8.91
2023-03-19T14:30:41.971Z,8.92
2023-03-19T14:31:50.585Z,8.88
2023-03-19T14:32:56.137Z,8.79
2023-03-19T14:34:04.622Z,8.81
2023-03-19T14:35:09.798Z,8.81
2023-03-19T14:36:19.326Z,8.86
2023-03-19T14:37:27.582Z,8.75
2023-03-19T14:38:42.296Z,8.84